createdAt,value
2019-02-25T00:00:57.384Z,42.37
2019-02-25T00:03:27.224Z,42.13
2019-02-25T00:05:57.169Z,42.95
2019-02-25T00:08:26.863Z,42.99
2019-02-25T00:10:56.666Z,43.36
2019-02-25T00:13:26.419Z,42.83
2019-02-25T00:15:56.123Z,42.24
2019-02-25T00:18:25.883Z,41.71
2019-02-25T00:20:55.663Z,41.54
2019-02-25T00:23:25.385Z,41.66
2019-02-25T00:25:55.137Z,41.78
2019-02-25T00:28:24.879Z,41.82
2019-02-25T00:30:54.610Z,42.01
2019-02-25T00:33:24.287Z,42.10
2019-02-25T00:35:53.935Z,42.54
2019-02-25T00:38:23.704Z,42.81
2019-02-25T00:40:53.624Z,43.19
2019-02-25T00:43:23.530Z,42.96
2019-02-25T00:45:53.273Z,43.67
2019-02-25T00:48:22.957Z,43.01
2019-02-25T00:50:52.634Z,43.50
2019-02-25T00:53:22.484Z,43.48
2019-02-25T00:55:52.245Z,42.87
2019-02-25T00:58:21.918Z,43.16
2019-02-25T01:00:51.688Z,42.68
2019-02-25T01:03:21.458Z,42.33
2019-02-25T01:05:51.248Z,42.52
2019-02-25T01:08:20.952Z,42.14
2019-02-25T01:10:50.731Z,42.22
2019-02-25T01:13:20.514Z,42.13
2019-02-25T01:15:50.342Z,42.72
2019-02-25T01:18:20.163Z,42.18
2019-02-25T01:20:49.981Z,42.05
2019-02-25T01:23:19.704Z,42.54
2019-02-25T01:25:49.429Z,42.61
2019-02-25T01:28:19.144Z,42.62
2019-02-25T01:30:48.864Z,42.99
2019-02-25T01:33:18.573Z,43.43
2019-02-25T01:35:48.343Z,43.32
2019-02-25T01:38:18.048Z,43.29
2019-02-25T01:40:47.860Z,43.93
2019-02-25T01:43:17.634Z,44.23
2019-02-25T01:45:47.278Z,43.52
2019-02-25T01:48:17.048Z,44.03
2019-02-25T01:50:46.715Z,43.87
2019-02-25T01:53:16.387Z,43.93
2019-02-25T01:55:46.122Z,44.36
2019-02-25T01:58:15.926Z,44.78
2019-02-25T02:00:45.585Z,45.05
2019-02-25T02:03:15.249Z,45.90
2019-02-25T02:05:45.075Z,46.27
2019-02-25T02:08:14.802Z,46.56
2019-02-25T02:10:44.573Z,46.76
2019-02-25T02:13:14.636Z,46.95
2019-02-25T02:15:44.542Z,47.23
2019-02-25T02:18:14.235Z,47.22
2019-02-25T02:20:43.931Z,47.01
2019-02-25T02:23:13.611Z,47.59
2019-02-25T02:25:43.386Z,47.99
2019-02-25T02:28:13.100Z,48.08
2019-02-25T02:30:42.803Z,48.18
2019-02-25T02:33:12.596Z,49.33
2019-02-25T02:35:42.279Z,50.03
2019-02-25T02:38:12.036Z,50.50
2019-02-25T02:40:41.770Z,50.52
2019-02-25T02:43:11.518Z,50.68
2019-02-25T02:45:55.035Z,50.40
2019-02-25T02:48:29.647Z,50.14
2019-02-25T02:50:59.652Z,49.58
2019-02-25T02:53:29.442Z,49.85
2019-02-25T02:55:59.107Z,50.11
2019-02-25T02:58:28.900Z,50.20
2019-02-25T03:00:58.554Z,49.84
2019-02-25T03:03:28.335Z,50.22
2019-02-25T03:05:58.052Z,50.41
2019-02-25T03:08:27.741Z,50.25
2019-02-25T03:10:57.413Z,50.33
2019-02-25T03:13:27.143Z,50.88
2019-02-25T03:15:56.866Z,50.89
2019-02-25T03:18:26.607Z,50.67
2019-02-25T03:20:56.277Z,50.79
2019-02-25T03:23:26.053Z,50.95
2019-02-25T03:25:55.875Z,51.14
2019-02-25T03:28:26.000Z,50.92
2019-02-25T03:30:55.677Z,51.19
2019-02-25T03:33:25.323Z,51.44
2019-02-25T03:35:54.997Z,51.43
2019-02-25T03:38:24.647Z,50.98
2019-02-25T03:40:54.326Z,51.27
2019-02-25T03:43:24.116Z,51.51
2019-02-25T03:45:53.792Z,51.52
2019-02-25T03:48:23.473Z,51.53
2019-02-25T03:50:53.259Z,51.54
2019-02-25T03:53:23.016Z,51.91
2019-02-25T03:55:52.881Z,51.94
2019-02-25T03:58:22.749Z,52.10
2019-02-25T04:00:52.796Z,52.35
2019-02-25T04:03:22.568Z,52.40
2019-02-25T04:05:52.353Z,52.50
2019-02-25T04:08:22.112Z,52.42
2019-02-25T04:10:51.776Z,52.56
2019-02-25T04:13:21.558Z,52.69
2019-02-25T04:15:51.370Z,53.06
2019-02-25T04:18:21.156Z,53.69
2019-02-25T04:20:50.820Z,54.01
2019-02-25T04:23:20.464Z,54.00
2019-02-25T04:25:50.186Z,53.97
2019-02-25T04:28:19.862Z,53.62
2019-02-25T04:30:49.718Z,53.31
2019-02-25T04:33:19.356Z,53.70
2019-02-25T04:35:49.045Z,53.75
2019-02-25T04:38:18.720Z,53.86
2019-02-25T04:40:48.399Z,53.91
2019-02-25T04:43:18.060Z,53.71
2019-02-25T04:45:47.905Z,53.68
2019-02-25T04:48:17.574Z,53.94
2019-02-25T04:50:47.281Z,54.50
2019-02-25T04:53:16.943Z,54.62
2019-02-25T04:55:46.675Z,54.53
2019-02-25T04:58:16.311Z,54.61
2019-02-25T05:00:46.099Z,54.89
2019-02-25T05:03:15.935Z,54.99
2019-02-25T05:05:45.726Z,55.20
2019-02-25T05:08:15.373Z,55.43
2019-02-25T05:10:45.139Z,55.36
2019-02-25T05:13:14.891Z,55.61
2019-02-25T05:15:44.627Z,55.83
2019-02-25T05:18:14.300Z,55.83
2019-02-25T05:20:44.010Z,55.81
2019-02-25T05:23:13.758Z,56.23
2019-02-25T05:25:43.518Z,56.63
2019-02-25T05:28:13.162Z,56.67
2019-02-25T05:30:42.838Z,56.79
2019-02-25T05:33:12.491Z,56.94
2019-02-25T05:35:42.227Z,56.86
2019-02-25T05:38:11.926Z,56.62
2019-02-25T05:40:41.587Z,56.54
2019-02-25T05:43:11.357Z,56.46
2019-02-25T05:45:41.077Z,56.37
2019-02-25T05:48:10.750Z,56.38
2019-02-25T05:50:40.452Z,56.35
2019-02-25T05:53:10.221Z,56.22
2019-02-25T05:55:40.387Z,56.02
2019-02-25T05:58:10.347Z,56.78
2019-02-25T06:00:40.010Z,56.82
2019-02-25T06:03:09.737Z,56.35
2019-02-25T06:05:39.428Z,56.10
2019-02-25T06:08:09.281Z,56.28
2019-02-25T06:10:39.128Z,56.38
2019-02-25T06:13:08.791Z,56.00
2019-02-25T06:15:38.591Z,56.52
2019-02-25T06:18:08.255Z,56.57
2019-02-25T06:20:37.962Z,56.84
2019-02-25T06:23:07.687Z,56.70
2019-02-25T06:25:38.956Z,55.93
2019-02-25T06:28:08.720Z,56.34
2019-02-25T06:30:38.617Z,55.94
2019-02-25T06:33:08.340Z,56.18
2019-02-25T06:35:38.059Z,56.10
2019-02-25T06:38:07.770Z,56.43
2019-02-25T06:40:37.616Z,55.96
2019-02-25T06:43:07.395Z,55.54
2019-02-25T06:45:38.196Z,55.69
2019-02-25T06:48:08.051Z,55.68
2019-02-25T06:50:38.421Z,55.50
2019-02-25T06:53:08.189Z,55.02
2019-02-25T06:55:37.883Z,55.42
2019-02-25T06:58:07.702Z,55.52
2019-02-25T07:00:37.469Z,55.30
2019-02-25T07:03:07.191Z,55.37
2019-02-25T07:05:39.531Z,55.30
2019-02-25T07:08:17.935Z,55.10
2019-02-25T07:10:49.244Z,55.70
2019-02-25T07:13:24.808Z,55.66
2019-02-25T07:15:56.383Z,55.79
2019-02-25T07:18:30.450Z,55.20
2019-02-25T07:21:02.056Z,54.77
2019-02-25T07:23:37.747Z,54.17
2019-02-25T07:26:22.237Z,53.20
2019-02-25T07:28:53.635Z,53.04
2019-02-25T07:31:37.494Z,52.39
2019-02-25T07:34:08.815Z,51.68
2019-02-25T07:36:42.985Z,52.15
2019-02-25T07:39:29.728Z,52.33
2019-02-25T07:42:03.998Z,51.68
2019-02-25T07:44:45.705Z,51.66
2019-02-25T07:47:19.570Z,49.57
2019-02-25T07:49:53.354Z,48.09
2019-02-25T07:52:33.911Z,47.83
2019-02-25T07:55:09.433Z,48.29
2019-02-25T07:57:41.818Z,47.20
2019-02-25T08:00:22.697Z,45.70
2019-02-25T08:03:02.885Z,44.59
2019-02-25T08:05:37.051Z,44.12
2019-02-25T08:08:06.528Z,43.88
2019-02-25T08:10:48.227Z,43.96
2019-02-25T08:13:22.541Z,42.56
2019-02-25T08:16:08.862Z,43.33
2019-02-25T08:18:40.916Z,43.78
2019-02-25T08:21:12.252Z,44.03
2019-02-25T08:23:46.375Z,43.91
2019-02-25T08:26:21.211Z,43.71
2019-02-25T08:28:52.596Z,44.04
2019-02-25T08:31:23.969Z,44.65
2019-02-25T08:33:55.579Z,44.93
2019-02-25T08:37:06.407Z,44.88
2019-02-25T08:39:38.177Z,44.63
2019-02-25T08:42:12.070Z,44.32
2019-02-25T08:44:43.383Z,44.02
2019-02-25T08:47:17.483Z,43.84
2019-02-25T08:49:50.169Z,44.14
2019-02-25T08:52:19.971Z,43.45
2019-02-25T08:54:49.704Z,43.18
2019-02-25T08:57:19.646Z,43.26
2019-02-25T08:59:49.412Z,41.96
2019-02-25T09:02:19.250Z,41.61
2019-02-25T09:04:49.337Z,41.50
2019-02-25T09:07:19.142Z,41.84
2019-02-25T09:09:48.995Z,41.76
2019-02-25T09:12:18.639Z,41.41
2019-02-25T09:14:48.425Z,40.34
2019-02-25T09:17:18.123Z,40.19
2019-02-25T09:19:47.903Z,40.14
2019-02-25T09:22:17.659Z,39.16
2019-02-25T09:24:47.379Z,39.10
2019-02-25T09:27:17.063Z,39.18
2019-02-25T09:29:46.759Z,39.54
2019-02-25T09:32:16.438Z,37.83
2019-02-25T09:34:47.130Z,38.31
2019-02-25T09:37:16.964Z,38.29
2019-02-25T09:39:46.637Z,38.51
2019-02-25T09:42:16.381Z,38.14
2019-02-25T09:44:46.188Z,38.61
2019-02-25T09:47:15.860Z,38.59
2019-02-25T09:49:45.626Z,38.61
2019-02-25T09:52:15.328Z,39.27
2019-02-25T09:54:45.038Z,38.74
2019-02-25T09:57:14.725Z,38.18
2019-02-25T09:59:44.456Z,38.36
2019-02-25T10:02:14.271Z,39.07
2019-02-25T10:04:43.961Z,38.67
2019-02-25T10:07:13.645Z,38.68
2019-02-25T10:09:43.421Z,38.07
2019-02-25T10:12:13.065Z,37.88
2019-02-25T10:14:42.780Z,37.14
2019-02-25T10:17:12.646Z,36.58
2019-02-25T10:19:42.303Z,36.54
2019-02-25T10:22:12.016Z,36.45
2019-02-25T10:24:41.699Z,36.50
2019-02-25T10:27:11.384Z,36.63
2019-02-25T10:29:41.062Z,36.37
2019-02-25T10:32:10.835Z,36.19
2019-02-25T10:34:40.570Z,36.07
2019-02-25T10:37:11.046Z,36.40
2019-02-25T10:39:43.272Z,35.74
2019-02-25T10:42:13.358Z,36.07
2019-02-25T10:44:43.091Z,36.17
2019-02-25T10:47:13.605Z,35.78
2019-02-25T10:49:44.340Z,36.29
2019-02-25T10:52:15.125Z,36.48
2019-02-25T10:54:45.647Z,36.13
2019-02-25T10:57:15.334Z,35.13
2019-02-25T10:59:45.059Z,35.31
2019-02-25T11:02:15.393Z,35.04
2019-02-25T11:04:47.379Z,35.26
2019-02-25T11:07:17.844Z,34.71
2019-02-25T11:09:55.039Z,34.69
2019-02-25T11:12:25.885Z,34.90
2019-02-25T11:14:56.652Z,34.69
2019-02-25T11:17:26.489Z,34.88
2019-02-25T11:19:56.702Z,34.87
2019-02-25T11:22:27.848Z,34.05
2019-02-25T11:24:57.851Z,34.37
2019-02-25T11:27:28.643Z,33.84
2019-02-25T11:29:59.243Z,33.99
2019-02-25T11:32:29.028Z,33.51
2019-02-25T11:34:58.853Z,33.54
2019-02-25T11:37:28.586Z,33.64
2019-02-25T11:39:59.830Z,33.21
2019-02-25T11:42:30.015Z,33.12
2019-02-25T11:45:01.583Z,33.37
2019-02-25T11:47:31.146Z,33.89
2019-02-25T11:50:00.928Z,34.29
2019-02-25T11:52:30.794Z,34.53
2019-02-25T11:55:00.602Z,34.28
2019-02-25T11:57:30.275Z,34.38
2019-02-25T12:00:00.331Z,34.08
2019-02-25T12:02:30.163Z,33.51
2019-02-25T12:04:59.855Z,33.77
2019-02-25T12:07:29.533Z,33.92
2019-02-25T12:09:59.257Z,33.78
2019-02-25T12:12:29.022Z,33.84
2019-02-25T12:14:58.718Z,33.66
2019-02-25T12:17:28.429Z,33.59
2019-02-25T12:19:58.472Z,33.76
2019-02-25T12:22:28.163Z,32.96
2019-02-25T12:24:57.889Z,32.83
2019-02-25T12:27:27.647Z,33.13
2019-02-25T12:29:57.353Z,33.53
2019-02-25T12:32:27.118Z,33.08
2019-02-25T12:34:56.823Z,33.77
2019-02-25T12:37:26.650Z,34.13
2019-02-25T12:39:56.411Z,34.67
2019-02-25T12:42:26.207Z,34.95
2019-02-25T12:44:55.935Z,34.67
2019-02-25T12:47:25.585Z,34.51
2019-02-25T12:49:55.428Z,34.48
2019-02-25T12:52:25.243Z,34.40
2019-02-25T12:54:55.540Z,34.45
2019-02-25T12:57:25.219Z,33.80
2019-02-25T12:59:54.909Z,34.01
2019-02-25T13:02:24.607Z,33.67
2019-02-25T13:04:54.301Z,33.83
2019-02-25T13:07:24.078Z,33.63
2019-02-25T13:09:53.816Z,33.75
2019-02-25T13:12:23.538Z,33.66
2019-02-25T13:14:53.291Z,33.28
2019-02-25T13:17:22.989Z,32.79
2019-02-25T13:19:52.753Z,32.45
2019-02-25T13:22:22.424Z,32.20
2019-02-25T13:24:52.103Z,32.14
2019-02-25T13:27:21.780Z,31.93
2019-02-25T13:29:51.581Z,32.12
2019-02-25T13:32:21.394Z,31.63
2019-02-25T13:34:51.288Z,31.65
2019-02-25T13:37:21.076Z,31.54
2019-02-25T13:39:50.882Z,31.32
2019-02-25T13:42:20.798Z,31.02
2019-02-25T13:44:50.614Z,30.80
2019-02-25T13:47:20.373Z,30.54
2019-02-25T13:49:50.409Z,30.54
2019-02-25T13:52:20.290Z,30.67
2019-02-25T13:54:50.043Z,30.68
2019-02-25T13:57:19.997Z,30.71
2019-02-25T13:59:49.727Z,30.54
2019-02-25T14:02:19.516Z,30.44
2019-02-25T14:04:49.417Z,30.35
2019-02-25T14:07:19.510Z,30.31
2019-02-25T14:09:49.250Z,29.83
2019-02-25T14:12:19.010Z,29.80
2019-02-25T14:14:48.742Z,29.62
2019-02-25T14:17:18.649Z,29.74
2019-02-25T14:19:48.505Z,30.22
2019-02-25T14:22:18.350Z,30.35
2019-02-25T14:24:48.113Z,30.40
2019-02-25T14:27:17.956Z,30.49
2019-02-25T14:29:48.863Z,30.39
2019-02-25T14:32:18.783Z,30.60
2019-02-25T14:34:48.927Z,30.73
2019-02-25T14:37:21.636Z,30.73
2019-02-25T14:39:53.827Z,30.82
2019-02-25T14:42:23.755Z,31.19
2019-02-25T14:44:56.255Z,31.06
2019-02-25T14:47:32.158Z,31.42
2019-02-25T14:49:59.124Z,31.64
2019-02-25T14:52:29.864Z,31.28
2019-02-25T14:55:01.336Z,31.00
2019-02-25T14:57:33.343Z,31.00
2019-02-25T15:00:04.889Z,31.25
2019-02-25T15:02:34.667Z,31.11
2019-02-25T15:05:06.218Z,31.44
2019-02-25T15:07:36.197Z,31.60
2019-02-25T15:10:11.024Z,31.58
2019-02-25T15:12:41.259Z,31.74
2019-02-25T15:15:25.040Z,32.00
2019-02-25T15:17:54.892Z,32.17
2019-02-25T15:20:26.206Z,32.38
2019-02-25T15:22:56.546Z,32.60
2019-02-25T15:25:29.113Z,32.81
2019-02-25T15:27:57.958Z,32.58
2019-02-25T15:30:30.916Z,32.62
2019-02-25T15:33:01.115Z,32.65
2019-02-25T15:35:34.037Z,32.66
2019-02-25T15:38:02.590Z,32.75
2019-02-25T15:40:32.537Z,32.86
2019-02-25T15:43:12.655Z,33.34
2019-02-25T15:45:43.202Z,32.83
2019-02-25T15:48:22.784Z,32.66
2019-02-25T15:50:57.980Z,32.70
2019-02-25T15:53:28.115Z,32.94
2019-02-25T15:56:01.054Z,33.22
2019-02-25T15:58:30.414Z,33.78
2019-02-25T16:01:00.330Z,33.90
2019-02-25T16:03:31.883Z,34.21
2019-02-25T16:06:04.306Z,34.51
2019-02-25T16:08:34.589Z,34.69
2019-02-25T16:11:04.988Z,34.42
2019-02-25T16:13:35.457Z,34.54
2019-02-25T16:16:08.594Z,34.88
2019-02-25T16:18:40.422Z,35.01
2019-02-25T16:21:11.191Z,34.96
2019-02-25T16:23:43.102Z,34.88
2019-02-25T16:26:13.536Z,34.78
2019-02-25T16:28:44.607Z,34.93
2019-02-25T16:31:15.022Z,35.07
2019-02-25T16:33:44.851Z,35.17
2019-02-25T16:36:14.763Z,35.48
2019-02-25T16:38:44.629Z,35.68
2019-02-25T16:41:15.971Z,35.90
2019-02-25T16:43:45.921Z,36.00
2019-02-25T16:46:17.880Z,36.22
2019-02-25T16:48:48.487Z,35.88
2019-02-25T16:51:19.205Z,35.80
2019-02-25T16:53:51.803Z,35.74
2019-02-25T16:56:20.407Z,36.08
2019-02-25T16:58:52.185Z,35.88
2019-02-25T17:01:22.067Z,36.16
2019-02-25T17:03:51.870Z,36.15
2019-02-25T17:06:21.996Z,36.35
2019-02-25T17:08:53.072Z,36.28
2019-02-25T17:11:23.196Z,36.32
2019-02-25T17:13:53.468Z,36.58
2019-02-25T17:16:24.362Z,36.89
2019-02-25T17:18:54.190Z,36.41
2019-02-25T17:21:24.017Z,36.43
2019-02-25T17:23:56.263Z,36.61
2019-02-25T17:26:26.921Z,36.61
2019-02-25T17:28:56.641Z,36.54
2019-02-25T17:31:26.516Z,35.99
2019-02-25T17:33:57.873Z,36.35
2019-02-25T17:36:27.829Z,36.38
2019-02-25T17:38:57.872Z,36.49
2019-02-25T17:41:27.820Z,36.36
2019-02-25T17:43:59.218Z,36.45
2019-02-25T17:46:32.632Z,36.51
2019-02-25T17:49:00.730Z,36.78
2019-02-25T17:51:31.046Z,37.31
2019-02-25T17:54:01.167Z,37.43
2019-02-25T17:56:31.087Z,37.32
2019-02-25T17:59:03.146Z,37.29
2019-02-25T18:01:32.705Z,37.60
2019-02-25T18:04:04.497Z,38.21
2019-02-25T18:06:34.890Z,38.38
2019-02-25T18:09:09.081Z,38.47
2019-02-25T18:11:41.121Z,38.34
2019-02-25T18:14:11.703Z,39.23
2019-02-25T18:16:45.944Z,39.39
2019-02-25T18:19:15.677Z,39.35
2019-02-25T18:21:45.504Z,39.46
2019-02-25T18:24:15.422Z,40.04
2019-02-25T18:26:46.938Z,40.68
2019-02-25T18:29:18.132Z,41.18
2019-02-25T18:31:48.748Z,41.07
2019-02-25T18:34:18.666Z,41.46
2019-02-25T18:36:49.378Z,41.65
2019-02-25T18:39:21.467Z,41.57
2019-02-25T18:41:53.384Z,41.57
2019-02-25T18:44:23.794Z,41.21
2019-02-25T18:46:53.471Z,41.48
2019-02-25T18:49:23.459Z,41.79
2019-02-25T18:51:54.775Z,41.52
2019-02-25T18:54:25.486Z,41.14
2019-02-25T18:56:56.886Z,40.96
2019-02-25T18:59:27.039Z,41.47
2019-02-25T19:01:56.917Z,41.79
2019-02-25T19:04:26.767Z,41.83
2019-02-25T19:06:56.608Z,41.68
2019-02-25T19:09:27.687Z,41.94
2019-02-25T19:11:58.543Z,42.12
2019-02-25T19:14:29.380Z,42.04
2019-02-25T19:17:01.928Z,42.13
2019-02-25T19:19:34.167Z,42.38
2019-02-25T19:22:03.333Z,42.32
2019-02-25T19:24:36.246Z,41.97
2019-02-25T19:27:06.574Z,41.49
2019-02-25T19:29:37.019Z,41.40
2019-02-25T19:32:07.340Z,41.55
2019-02-25T19:34:39.195Z,41.49
2019-02-25T19:37:09.570Z,41.97
2019-02-25T19:39:41.519Z,42.02
2019-02-25T19:42:15.099Z,41.66
2019-02-25T19:44:43.030Z,41.77
2019-02-25T19:47:14.346Z,41.71
2019-02-25T19:49:45.911Z,42.34
2019-02-25T19:52:16.813Z,42.79
2019-02-25T19:54:48.807Z,42.83
2019-02-25T19:57:18.803Z,42.88
2019-02-25T19:59:50.551Z,42.53
2019-02-25T20:02:22.594Z,42.26
2019-02-25T20:04:53.377Z,42.32
2019-02-25T20:07:25.927Z,42.74
2019-02-25T20:09:55.267Z,42.82
2019-02-25T20:12:26.123Z,42.86
2019-02-25T20:14:55.833Z,42.85
2019-02-25T20:17:28.173Z,43.26
2019-02-25T20:19:58.941Z,43.58
2019-02-25T20:22:30.241Z,43.90
2019-02-25T20:25:00.394Z,43.87
2019-02-25T20:27:30.116Z,44.09
2019-02-25T20:30:00.745Z,44.51
2019-02-25T20:32:32.484Z,44.56
2019-02-25T20:35:03.009Z,44.69
2019-02-25T20:37:33.801Z,45.26
2019-02-25T20:40:04.962Z,45.69
2019-02-25T20:42:34.603Z,46.26
2019-02-25T20:45:06.272Z,46.61
2019-02-25T20:47:35.990Z,46.34
2019-02-25T20:50:14.503Z,46.13
2019-02-25T20:52:44.697Z,46.43
2019-02-25T20:55:14.756Z,46.65
2019-02-25T20:57:45.308Z,46.84
2019-02-25T21:00:26.161Z,46.76
2019-02-25T21:02:55.890Z,47.18
2019-02-25T21:05:27.320Z,47.64
2019-02-25T21:07:59.638Z,47.77
2019-02-25T21:10:30.493Z,47.58
2019-02-25T21:13:02.115Z,47.75
2019-02-25T21:15:33.371Z,47.95
2019-02-25T21:18:05.344Z,48.17
2019-02-25T21:20:34.606Z,48.23
2019-02-25T21:23:05.981Z,48.49
2019-02-25T21:25:38.118Z,48.65
2019-02-25T21:28:09.113Z,49.21
2019-02-25T21:30:41.163Z,49.18
2019-02-25T21:33:13.328Z,49.28
2019-02-25T21:35:42.011Z,49.33
2019-02-25T21:38:13.378Z,49.50
2019-02-25T21:40:43.938Z,49.66
2019-02-25T21:43:16.561Z,49.89
2019-02-25T21:45:49.777Z,49.98
2019-02-25T21:48:21.113Z,50.29
2019-02-25T21:50:49.133Z,50.41
2019-02-25T21:53:18.950Z,50.25
2019-02-25T21:55:50.548Z,50.69
2019-02-25T21:58:21.235Z,50.69
2019-02-25T22:00:51.603Z,50.80
2019-02-25T22:03:21.851Z,50.89
2019-02-25T22:05:54.088Z,51.05
2019-02-25T22:08:24.422Z,50.95
2019-02-25T22:10:54.985Z,51.16
2019-02-25T22:13:24.660Z,51.24
2019-02-25T22:15:54.362Z,51.45
2019-02-25T22:18:26.163Z,51.94
2019-02-25T22:20:56.131Z,52.22
2019-02-25T22:23:26.124Z,52.46
2019-02-25T22:25:57.351Z,52.85
2019-02-25T22:28:28.821Z,53.00
2019-02-25T22:30:58.605Z,53.09
2019-02-25T22:33:30.403Z,53.21
2019-02-25T22:36:00.411Z,53.45
2019-02-25T22:38:30.091Z,53.84
2019-02-25T22:41:02.147Z,53.99
2019-02-25T22:43:31.317Z,53.82
2019-02-25T22:46:02.588Z,53.66
2019-02-25T22:48:32.456Z,53.64
2019-02-25T22:51:03.024Z,53.75
2019-02-25T22:53:33.769Z,53.85
2019-02-25T22:56:03.530Z,53.92
2019-02-25T22:58:34.551Z,54.19
2019-02-25T23:01:09.518Z,54.33
2019-02-25T23:03:42.920Z,54.21
2019-02-25T23:06:13.307Z,54.53
2019-02-25T23:08:44.308Z,54.61
2019-02-25T23:11:16.579Z,54.71
2019-02-25T23:13:47.881Z,54.74
2019-02-25T23:16:19.922Z,54.84
2019-02-25T23:18:49.405Z,55.10
2019-02-25T23:21:23.738Z,55.19
2019-02-25T23:23:53.393Z,55.25
2019-02-25T23:26:21.832Z,55.21
2019-02-25T23:28:53.763Z,55.16
2019-02-25T23:31:23.178Z,55.22
2019-02-25T23:33:53.668Z,55.53
2019-02-25T23:36:24.791Z,55.94
2019-02-25T23:38:57.025Z,56.18
2019-02-25T23:41:26.555Z,56.24
2019-02-25T23:43:56.303Z,56.44
2019-02-25T23:46:27.887Z,56.66
2019-02-25T23:48:57.586Z,57.10
2019-02-25T23:51:27.319Z,57.62
2019-02-25T23:53:57.667Z,58.00
2019-02-25T23:56:29.486Z,58.02
2019-02-25T23:58:58.989Z,58.36
